Time;durP1;ratioP1;P1;durP2;ratioP2;P2;SDS_P1;SDS_P2;PMS_P1;PMS_P2;Temp;Humidity;BMP_temperature;BMP_pressure;BME280_temperature;BME280_humidity;BME280_pressure;Samples;Min_cycle;Max_cycle;Signal;HPM_P1;HPM_P2
2022/05/27 00:00:55;;;;;;;1.65;0.75;;;;;;;;;;5013973;28;20390;-57
2022/05/27 00:03:21;;;;;;;1.52;0.70;;;;;;;;;;5013825;28;20026;-57
2022/05/27 00:05:51;;;;;;;1.48;0.68;;;;;;;;;;5013312;28;20034;-56
2022/05/27 00:08:17;;;;;;;0.93;0.60;;;;;;;;;;5013696;28;20028;-57
2022/05/27 00:10:43;;;;;;;0.60;0.50;;;;;;;;;;5013823;28;20026;-57
2022/05/27 00:13:09;;;;;;;1.83;0.75;;;;;;;;;;5011712;28;20364;-57
2022/05/27 00:15:35;;;;;;;4.22;1.77;;;;;;;;;;5013914;28;20030;-56
2022/05/27 00:18:01;;;;;;;1.13;0.80;;;;;;;;;;5012992;28;20344;-57
2022/05/27 00:20:27;;;;;;;2.08;0.80;;;;;;;;;;5013374;28;20048;-56
2022/05/27 00:22:53;;;;;;;1.90;0.95;;;;;;;;;;5012656;28;20505;-55
2022/05/27 00:25:20;;;;;;;1.17;0.60;;;;;;;;;;5013211;28;20099;-58
2022/05/27 00:27:46;;;;;;;0.75;0.50;;;;;;;;;;5013209;28;20034;-58
2022/05/27 00:30:12;;;;;;;1.15;0.88;;;;;;;;;;5012663;28;20581;-57
2022/05/27 00:32:38;;;;;;;2.47;0.95;;;;;;;;;;5012959;28;20030;-57
2022/05/27 00:35:05;;;;;;;3.33;0.60;;;;;;;;;;5012842;28;20032;-58
2022/05/27 00:37:31;;;;;;;1.65;1.00;;;;;;;;;;5013305;28;20037;-58
2022/05/27 00:39:57;;;;;;;1.02;0.50;;;;;;;;;;5012258;28;20029;-58
2022/05/27 00:42:23;;;;;;;1.63;0.63;;;;;;;;;;5013322;28;20033;-57
2022/05/27 00:44:49;;;;;;;1.63;0.65;;;;;;;;;;5012378;28;20021;-53
2022/05/27 00:47:17;;;;;;;1.02;0.75;;;;;;;;;;5012635;28;20049;-57
2022/05/27 00:49:45;;;;;;;1.13;0.70;;;;;;;;;;5013136;28;20022;-55
2022/05/27 00:52:13;;;;;;;1.42;0.40;;;;;;;;;;5012319;28;20030;-57
2022/05/27 00:54:40;;;;;;;1.27;0.63;;;;;;;;;;5012503;28;20101;-56
2022/05/27 00:57:09;;;;;;;1.27;0.70;;;;;;;;;;5011894;28;20030;-56
2022/05/27 00:59:39;;;;;;;2.15;0.70;;;;;;;;;;5012372;28;20084;-56
2022/05/27 01:02:05;;;;;;;1.50;0.55;;;;;;;;;;5011309;28;20033;-54
2022/05/27 01:04:32;;;;;;;1.70;0.70;;;;;;;;;;5012703;28;20026;-55
2022/05/27 01:06:58;;;;;;;1.25;0.57;;;;;;;;;;5012179;28;20038;-56
2022/05/27 01:09:24;;;;;;;2.20;0.70;;;;;;;;;;5012443;28;20113;-54
2022/05/27 01:12:06;;;;;;;2.60;0.80;;;;;;;;;;5011677;28;20026;-50
2022/05/27 01:14:35;;;;;;;6.40;0.77;;;;;;;;;;5010173;28;20026;-57
2022/05/27 01:17:07;;;;;;;0.77;0.60;;;;;;;;;;5010304;28;20033;-57
2022/05/27 01:22:36;;;;;;;2.38;0.55;;;;;;;;;;5008659;28;20426;-55
2022/05/27 01:25:15;;;;;;;1.50;0.80;;;;;;;;;;5010001;28;20033;-55
2022/05/27 01:27:59;;;;;;;3.05;0.60;;;;;;;;;;5009086;28;20383;-54
2022/05/27 01:30:35;;;;;;;2.85;1.10;;;;;;;;;;5009332;28;20030;-54
2022/05/27 01:33:06;;;;;;;3.45;0.52;;;;;;;;;;5008229;28;20097;-55
2022/05/27 01:35:49;;;;;;;1.30;0.60;;;;;;;;;;5010742;28;20048;-55
2022/05/27 01:38:18;;;;;;;1.75;0.50;;;;;;;;;;5008403;28;20045;-53
2022/05/27 01:40:44;;;;;;;2.40;0.85;;;;;;;;;;5010654;28;20137;-54
2022/05/27 01:43:10;;;;;;;1.02;0.70;;;;;;;;;;5009734;28;20097;-53
2022/05/27 01:45:52;;;;;;;0.70;0.50;;;;;;;;;;5009926;28;20050;-54
2022/05/27 01:48:36;;;;;;;0.85;0.70;;;;;;;;;;5008545;28;20026;-55
2022/05/27 01:51:14;;;;;;;1.30;0.63;;;;;;;;;;5008473;28;20685;-55
2022/05/27 01:53:43;;;;;;;3.22;0.70;;;;;;;;;;5008943;28;20018;-54
2022/05/27 01:56:18;;;;;;;1.45;0.60;;;;;;;;;;5009832;28;20076;-55
2022/05/27 01:58:58;;;;;;;1.23;0.63;;;;;;;;;;5010126;28;20030;-52
2022/05/27 02:01:27;;;;;;;1.35;0.70;;;;;;;;;;5008982;28;20026;-55
2022/05/27 02:03:56;;;;;;;1.90;0.52;;;;;;;;;;5010038;28;20054;-54
2022/05/27 02:06:27;;;;;;;2.33;0.80;;;;;;;;;;5009960;28;20048;-54
2022/05/27 02:08:56;;;;;;;2.63;0.63;;;;;;;;;;5010305;28;20499;-55
2022/05/27 02:11:23;;;;;;;1.75;0.70;;;;;;;;;;5010749;28;20792;-55
2022/05/27 02:13:59;;;;;;;0.80;0.60;;;;;;;;;;5011168;28;20045;-54
2022/05/27 02:16:30;;;;;;;2.20;0.70;;;;;;;;;;5011156;28;20030;-54
2022/05/27 02:19:01;;;;;;;1.63;0.50;;;;;;;;;;5003267;28;20037;-54
2022/05/27 02:21:29;;;;;;;1.42;0.55;;;;;;;;;;5011884;28;20034;-52
2022/05/27 02:23:58;;;;;;;1.50;0.68;;;;;;;;;;5010667;28;20022;-53
2022/05/27 02:26:26;;;;;;;1.45;0.82;;;;;;;;;;5011663;28;20171;-55
2022/05/27 02:28:56;;;;;;;0.85;0.60;;;;;;;;;;5011495;28;20048;-55
2022/05/27 02:31:24;;;;;;;2.08;0.80;;;;;;;;;;5011093;28;20073;-55
2022/05/27 02:36:51;;;;;;;0.77;0.68;;;;;;;;;;5014308;28;20142;-54
2022/05/27 02:39:18;;;;;;;1.67;0.73;;;;;;;;;;5014325;28;20033;-55
2022/05/27 02:42:02;;;;;;;1.63;0.68;;;;;;;;;;5014643;28;20038;-55
2022/05/27 02:44:34;;;;;;;2.38;0.68;;;;;;;;;;5014426;28;20372;-55
2022/05/27 02:47:30;;;;;;;1.00;0.70;;;;;;;;;;5013729;28;20044;-56
2022/05/27 02:50:05;;;;;;;1.00;0.60;;;;;;;;;;4993684;28;20079;-55
2022/05/27 02:52:43;;;;;;;2.13;0.60;;;;;;;;;;5014869;28;20034;-51
2022/05/27 02:55:12;;;;;;;0.52;0.50;;;;;;;;;;5013864;28;20033;-54
2022/05/27 02:57:43;;;;;;;4.70;0.98;;;;;;;;;;5014259;28;20103;-54
2022/05/27 03:00:18;;;;;;;2.50;0.60;;;;;;;;;;5013540;28;20030;-52
2022/05/27 03:02:44;;;;;;;1.92;0.73;;;;;;;;;;5013707;28;20067;-55
2022/05/27 03:05:10;;;;;;;2.05;0.90;;;;;;;;;;5013946;28;20422;-53
2022/05/27 03:07:36;;;;;;;0.82;0.50;;;;;;;;;;5014275;28;20487;-55
2022/05/27 03:10:14;;;;;;;2.75;0.73;;;;;;;;;;5013523;28;20072;-54
2022/05/27 03:12:48;;;;;;;1.17;0.60;;;;;;;;;;5014401;28;20022;-54
2022/05/27 03:15:23;;;;;;;2.03;0.98;;;;;;;;;;5013378;28;20037;-55
2022/05/27 03:18:00;;;;;;;1.40;0.75;;;;;;;;;;5014142;28;20456;-56
2022/05/27 03:20:44;;;;;;;2.33;1.17;;;;;;;;;;5006343;28;20058;-56
2022/05/27 03:23:16;;;;;;;2.25;0.80;;;;;;;;;;5013277;28;20025;-54
2022/05/27 03:25:42;;;;;;;1.30;0.60;;;;;;;;;;5014259;28;20037;-54
2022/05/27 03:28:08;;;;;;;1.95;0.70;;;;;;;;;;5013413;28;20026;-55
2022/05/27 03:30:39;;;;;;;1.00;0.60;;;;;;;;;;5014007;28;20038;-56
2022/05/27 03:33:08;;;;;;;2.28;0.80;;;;;;;;;;5013314;28;20030;-56
2022/05/27 03:35:36;;;;;;;0.93;0.50;;;;;;;;;;5013759;28;20030;-55
2022/05/27 03:38:15;;;;;;;4.60;1.05;;;;;;;;;;5013469;28;20022;-55
2022/05/27 03:40:50;;;;;;;1.60;0.70;;;;;;;;;;5013831;28;20034;-55
2022/05/27 03:43:17;;;;;;;1.58;0.80;;;;;;;;;;5013384;28;20095;-56
2022/05/27 03:45:51;;;;;;;1.55;0.80;;;;;;;;;;5013572;28;20050;-55
2022/05/27 03:48:17;;;;;;;1.75;0.80;;;;;;;;;;5012835;28;20022;-56
2022/05/27 03:50:45;;;;;;;1.13;0.75;;;;;;;;;;5013855;28;20034;-56
2022/05/27 03:53:11;;;;;;;0.80;0.60;;;;;;;;;;5012948;28;20128;-55
2022/05/27 03:55:43;;;;;;;2.60;0.70;;;;;;;;;;5013567;28;20049;-54
2022/05/27 03:58:09;;;;;;;2.05;0.68;;;;;;;;;;5012939;28;20045;-56
2022/05/27 04:00:35;;;;;;;1.98;0.93;;;;;;;;;;5013645;28;20026;-55
2022/05/27 04:03:01;;;;;;;2.50;0.70;;;;;;;;;;5012730;28;20030;-56
2022/05/27 04:05:26;;;;;;;1.20;0.80;;;;;;;;;;5013688;28;20017;-56
2022/05/27 04:07:52;;;;;;;1.67;0.70;;;;;;;;;;5013203;28;20483;-54
2022/05/27 04:10:19;;;;;;;2.28;0.82;;;;;;;;;;5011183;28;20052;-56
2022/05/27 04:12:45;;;;;;;1.98;0.75;;;;;;;;;;5011671;28;20022;-56
2022/05/27 04:15:11;;;;;;;3.15;0.98;;;;;;;;;;5010957;28;20028;-52
2022/05/27 04:17:37;;;;;;;1.00;0.80;;;;;;;;;;5011897;28;20040;-56
2022/05/27 04:20:06;;;;;;;1.95;0.90;;;;;;;;;;5010906;28;20025;-56
2022/05/27 04:22:32;;;;;;;0.82;0.65;;;;;;;;;;5011894;28;20072;-55
2022/05/27 04:24:58;;;;;;;2.08;1.10;;;;;;;;;;5011972;28;20072;-56
2022/05/27 04:27:25;;;;;;;2.50;2.05;;;;;;;;;;5010650;28;20096;-54
2022/05/27 04:29:52;;;;;;;1.20;0.80;;;;;;;;;;5011400;28;20468;-55
2022/05/27 04:32:18;;;;;;;1.70;1.00;;;;;;;;;;5010820;28;20026;-55
2022/05/27 04:34:44;;;;;;;2.03;0.73;;;;;;;;;;5011579;28;20061;-53
2022/05/27 04:37:10;;;;;;;1.92;0.80;;;;;;;;;;5010647;28;20037;-53
2022/05/27 04:39:37;;;;;;;1.40;0.82;;;;;;;;;;5011340;28;20026;-55
2022/05/27 04:42:03;;;;;;;2.08;0.95;;;;;;;;;;5010748;28;20065;-55
2022/05/27 04:44:29;;;;;;;2.83;0.95;;;;;;;;;;5011353;28;20102;-55
2022/05/27 04:46:55;;;;;;;2.35;0.95;;;;;;;;;;5011497;28;20491;-55
2022/05/27 04:52:06;;;;;;;1.60;1.00;;;;;;;;;;5011845;28;20080;-54
2022/05/27 04:54:32;;;;;;;2.13;0.95;;;;;;;;;;5012368;28;20034;-57
2022/05/27 04:56:58;;;;;;;1.88;1.20;;;;;;;;;;5012526;28;20463;-55
2022/05/27 04:59:24;;;;;;;2.92;1.40;;;;;;;;;;5011059;28;20088;-56
2022/05/27 05:01:50;;;;;;;1.52;0.88;;;;;;;;;;5012091;28;20030;-56
2022/05/27 05:04:16;;;;;;;2.03;0.90;;;;;;;;;;5010959;28;20060;-56
2022/05/27 05:06:43;;;;;;;2.03;0.95;;;;;;;;;;5011971;28;20088;-56
2022/05/27 05:09:09;;;;;;;1.95;1.00;;;;;;;;;;5011126;28;20406;-55
2022/05/27 05:11:36;;;;;;;2.15;1.23;;;;;;;;;;5011640;28;20459;-56
2022/05/27 05:14:02;;;;;;;1.30;0.80;;;;;;;;;;5011279;28;20038;-54
2022/05/27 05:16:28;;;;;;;3.03;1.10;;;;;;;;;;5011001;28;20022;-56
2022/05/27 05:18:54;;;;;;;2.42;1.08;;;;;;;;;;5011801;28;20060;-53
2022/05/27 05:21:20;;;;;;;1.92;0.88;;;;;;;;;;5010907;28;20917;-56
2022/05/27 05:23:46;;;;;;;2.20;0.82;;;;;;;;;;5012004;28;20057;-57
2022/05/27 05:26:12;;;;;;;1.52;1.00;;;;;;;;;;5011565;28;20057;-58
2022/05/27 05:28:38;;;;;;;1.95;1.00;;;;;;;;;;5011719;28;20100;-57
2022/05/27 05:31:06;;;;;;;1.15;0.80;;;;;;;;;;5011138;28;20034;-57
2022/05/27 05:33:32;;;;;;;2.03;0.90;;;;;;;;;;5011631;28;20033;-56
2022/05/27 05:35:58;;;;;;;2.75;1.27;;;;;;;;;;5012205;28;20045;-57
2022/05/27 05:38:26;;;;;;;1.67;0.90;;;;;;;;;;5010600;28;20493;-55
2022/05/27 05:40:52;;;;;;;3.33;1.02;;;;;;;;;;5012350;28;20406;-56
2022/05/27 05:43:18;;;;;;;2.90;1.35;;;;;;;;;;5010906;28;20106;-56
2022/05/27 05:45:44;;;;;;;2.85;1.20;;;;;;;;;;5011815;28;20493;-57
2022/05/27 05:48:10;;;;;;;2.63;1.30;;;;;;;;;;5011160;28;20033;-56
2022/05/27 05:50:36;;;;;;;1.67;0.75;;;;;;;;;;5012069;28;20030;-55
2022/05/27 05:53:02;;;;;;;2.38;0.93;;;;;;;;;;5012171;28;20041;-55
2022/05/27 05:55:31;;;;;;;4.05;1.23;;;;;;;;;;5011578;28;20034;-58
2022/05/27 05:57:57;;;;;;;3.53;1.13;;;;;;;;;;5011969;28;20044;-58
2022/05/27 06:00:24;;;;;;;1.98;1.20;;;;;;;;;;5011902;28;20267;-59
2022/05/27 06:02:50;;;;;;;2.63;1.17;;;;;;;;;;5011836;28;20029;-58
2022/05/27 06:05:16;;;;;;;3.38;0.98;;;;;;;;;;5011418;28;20041;-58
2022/05/27 06:07:43;;;;;;;2.55;0.98;;;;;;;;;;5011314;28;20403;-58
2022/05/27 06:10:09;;;;;;;2.53;1.10;;;;;;;;;;5011658;28;20077;-58
2022/05/27 06:12:36;;;;;;;2.58;1.33;;;;;;;;;;5015616;28;20030;-56
2022/05/27 06:15:03;;;;;;;1.95;1.02;;;;;;;;;;5015030;28;20030;-58
2022/05/27 06:17:29;;;;;;;1.85;0.93;;;;;;;;;;5014598;28;20107;-60
2022/05/27 06:19:55;;;;;;;1.60;1.08;;;;;;;;;;5015515;28;20450;-60
2022/05/27 06:22:21;;;;;;;3.10;1.20;;;;;;;;;;5014426;28;20034;-60
2022/05/27 06:24:47;;;;;;;2.70;1.55;;;;;;;;;;5015554;28;20018;-59
2022/05/27 06:27:13;;;;;;;1.55;0.90;;;;;;;;;;5014099;28;20220;-62
2022/05/27 06:35:09;;;;;;;1.98;1.10;;;;;;;;;;5014266;28;20065;-60
2022/05/27 06:37:35;;;;;;;2.42;1.25;;;;;;;;;;5014672;28;20038;-60
2022/05/27 06:40:01;;;;;;;2.88;1.05;;;;;;;;;;5014987;28;20017;-60
2022/05/27 06:42:27;;;;;;;1.48;1.00;;;;;;;;;;5013917;28;20780;-59
2022/05/27 06:44:53;;;;;;;3.47;1.25;;;;;;;;;;5014467;28;20371;-58
2022/05/27 06:47:19;;;;;;;1.77;1.00;;;;;;;;;;5014065;28;20030;-58
2022/05/27 06:49:45;;;;;;;1.98;0.90;;;;;;;;;;5014921;28;20101;-59
2022/05/27 06:52:13;;;;;;;2.42;0.90;;;;;;;;;;5013638;28;20120;-60
2022/05/27 06:54:39;;;;;;;2.38;1.08;;;;;;;;;;5014692;28;20025;-58
2022/05/27 06:57:06;;;;;;;2.67;0.90;;;;;;;;;;5014849;28;20398;-59
2022/05/27 06:59:33;;;;;;;2.55;1.13;;;;;;;;;;5013992;28;20058;-58
2022/05/27 07:01:59;;;;;;;1.48;0.85;;;;;;;;;;5015123;28;20104;-57
2022/05/27 07:04:25;;;;;;;2.65;1.50;;;;;;;;;;5013480;28;20036;-54
2022/05/27 07:06:52;;;;;;;2.38;0.93;;;;;;;;;;5013900;28;20068;-59
2022/05/27 07:09:21;;;;;;;2.00;1.48;;;;;;;;;;5013256;28;20478;-57
2022/05/27 07:11:48;;;;;;;3.05;0.98;;;;;;;;;;5014663;28;20030;-58
2022/05/27 07:14:15;;;;;;;3.22;1.10;;;;;;;;;;5013073;28;20037;-59
2022/05/27 07:16:41;;;;;;;2.60;0.88;;;;;;;;;;5014544;28;20025;-56
2022/05/27 07:19:07;;;;;;;1.23;0.98;;;;;;;;;;5013871;28;20097;-55
2022/05/27 07:21:39;;;;;;;2.08;1.17;;;;;;;;;;5013004;28;20033;-57
2022/05/27 07:24:05;;;;;;;2.40;1.00;;;;;;;;;;5014557;28;20022;-58
2022/05/27 07:26:31;;;;;;;2.03;1.30;;;;;;;;;;5013363;28;20471;-58
2022/05/27 07:28:57;;;;;;;1.95;0.90;;;;;;;;;;5013907;28;20026;-54
2022/05/27 07:31:23;;;;;;;2.22;1.10;;;;;;;;;;5013572;28;20034;-58
2022/05/27 07:33:49;;;;;;;2.60;1.00;;;;;;;;;;5012330;28;20026;-56
2022/05/27 07:36:15;;;;;;;1.42;1.27;;;;;;;;;;5009457;28;20038;-56
2022/05/27 07:38:41;;;;;;;4.22;1.10;;;;;;;;;;5009695;28;20037;-55
2022/05/27 07:41:07;;;;;;;2.55;0.90;;;;;;;;;;5011770;28;20463;-49
2022/05/27 07:43:34;;;;;;;1.80;0.93;;;;;;;;;;5011884;28;20028;-51
2022/05/27 07:46:00;;;;;;;5.07;1.00;;;;;;;;;;5012323;28;20049;-54
2022/05/27 07:48:26;;;;;;;2.45;1.08;;;;;;;;;;5013152;28;20029;-51
2022/05/27 07:50:52;;;;;;;2.08;1.00;;;;;;;;;;5014129;28;20543;-58
2022/05/27 07:53:19;;;;;;;3.33;0.82;;;;;;;;;;5013677;28;20092;-50
2022/05/27 07:55:45;;;;;;;5.47;1.30;;;;;;;;;;5014110;28;20032;-57
2022/05/27 07:58:11;;;;;;;3.08;1.20;;;;;;;;;;5013324;28;20037;-58
2022/05/27 08:00:38;;;;;;;3.92;1.20;;;;;;;;;;5009169;28;20026;-55
2022/05/27 08:03:05;;;;;;;4.75;1.33;;;;;;;;;;5012165;28;20037;-54
2022/05/27 08:05:32;;;;;;;1.90;1.05;;;;;;;;;;5009735;28;20499;-56
2022/05/27 08:07:59;;;;;;;3.92;1.30;;;;;;;;;;5013363;28;20037;-51
2022/05/27 08:10:27;;;;;;;2.13;1.33;;;;;;;;;;5013117;28;20025;-58
2022/05/27 08:12:54;;;;;;;3.45;1.25;;;;;;;;;;5013802;28;20032;-58
2022/05/27 08:15:20;;;;;;;2.58;1.27;;;;;;;;;;5013142;28;20076;-58
2022/05/27 08:17:46;;;;;;;1.98;1.25;;;;;;;;;;5013539;28;20041;-58
2022/05/27 08:20:17;;;;;;;2.45;1.10;;;;;;;;;;5012942;28;20356;-58
2022/05/27 08:22:43;;;;;;;1.33;1.10;;;;;;;;;;5013399;28;20053;-58
2022/05/27 08:25:09;;;;;;;2.35;0.93;;;;;;;;;;5013297;28;20038;-51
2022/05/27 08:27:35;;;;;;;3.70;1.10;;;;;;;;;;5013411;28;20029;-59
2022/05/27 08:30:02;;;;;;;4.28;1.13;;;;;;;;;;5013120;28;20029;-57
2022/05/27 08:32:30;;;;;;;3.78;1.30;;;;;;;;;;5011798;28;20034;-55
2022/05/27 08:40:44;;;;;;;4.57;1.10;;;;;;;;;;5012260;28;20127;-55
2022/05/27 08:43:16;;;;;;;2.13;0.90;;;;;;;;;;5013230;28;20041;-59
2022/05/27 08:45:42;;;;;;;;;;;;;;;;;;5013190;28;20049;-55
2022/05/27 08:48:09;;;;;;;1.85;0.85;;;;;;;;;;5013203;28;19929;-51
2022/05/27 08:50:35;;;;;;;4.55;1.02;;;;;;;;;;5012075;28;20394;-54
2022/05/27 08:53:24;;;;;;;4.63;1.10;;;;;;;;;;5012834;28;20034;-54
2022/05/27 09:01:43;;;;;;;2.30;1.08;;;;;;;;;;5008160;28;20037;-56
2022/05/27 09:04:18;;;;;;;1.20;0.95;;;;;;;;;;5013028;28;20037;-55
2022/05/27 09:06:55;;;;;;;2.10;1.30;;;;;;;;;;5012715;28;20533;-56
2022/05/27 09:09:23;;;;;;;2.33;1.10;;;;;;;;;;5011879;28;20116;-57
2022/05/27 09:11:52;;;;;;;3.03;1.13;;;;;;;;;;5012257;28;20030;-56
2022/05/27 09:14:24;;;;;;;3.75;1.23;;;;;;;;;;5011703;28;20428;-57
2022/05/27 09:16:50;;;;;;;1.55;1.05;;;;;;;;;;5012186;28;20030;-56
2022/05/27 09:19:35;;;;;;;2.53;1.00;;;;;;;;;;5012212;28;20068;-59
2022/05/27 09:22:07;;;;;;;3.47;1.30;;;;;;;;;;5012497;28;20083;-59
2022/05/27 09:24:38;;;;;;;2.63;1.10;;;;;;;;;;5011645;28;20316;-58
2022/05/27 09:27:08;;;;;;;2.75;1.00;;;;;;;;;;5012611;28;20049;-53
2022/05/27 09:29:42;;;;;;;2.38;1.20;;;;;;;;;;5011415;28;20042;-55
2022/05/27 09:32:13;;;;;;;4.32;0.90;;;;;;;;;;5012749;28;20080;-57
2022/05/27 09:34:41;;;;;;;8.20;1.35;;;;;;;;;;5011796;28;20021;-57
2022/05/27 09:37:08;;;;;;;3.35;1.40;;;;;;;;;;5012454;28;20162;-55
2022/05/27 09:39:34;;;;;;;2.88;0.98;;;;;;;;;;5011708;28;20041;-54
2022/05/27 09:42:18;;;;;;;3.47;0.90;;;;;;;;;;5011855;28;20022;-52
2022/05/27 09:44:49;;;;;;;1.55;0.90;;;;;;;;;;5012263;28;20475;-51
2022/05/27 09:47:16;;;;;;;2.63;1.10;;;;;;;;;;5011550;28;20042;-55
2022/05/27 09:49:45;;;;;;;1.60;0.80;;;;;;;;;;5012262;28;20049;-56
2022/05/27 09:52:11;;;;;;;3.85;0.93;;;;;;;;;;5012051;28;20434;-58
2022/05/27 09:54:47;;;;;;;2.85;0.70;;;;;;;;;;5011818;28;20026;-50
2022/05/27 09:57:13;;;;;;;5.65;1.48;;;;;;;;;;5004219;28;20482;-50
2022/05/27 09:59:47;;;;;;;1.30;0.77;;;;;;;;;;5011670;28;20026;-55
2022/05/27 10:02:18;;;;;;;1.45;0.85;;;;;;;;;;5011450;28;20033;-53
2022/05/27 10:04:56;;;;;;;1.45;0.70;;;;;;;;;;5011784;28;20030;-57
2022/05/27 10:07:25;;;;;;;2.85;0.82;;;;;;;;;;5011523;28;20077;-58
2022/05/27 10:09:51;;;;;;;7.15;1.20;;;;;;;;;;5012133;28;20105;-53
2022/05/27 10:12:31;;;;;;;3.38;1.38;;;;;;;;;;5011218;28;20438;-57
2022/05/27 10:14:57;;;;;;;1.98;0.73;;;;;;;;;;5012271;28;20029;-59
2022/05/27 10:17:35;;;;;;;2.15;0.93;;;;;;;;;;5003794;28;20066;-52
2022/05/27 10:20:36;;;;;;;4.13;0.85;;;;;;;;;;5012033;28;20419;-51
2022/05/27 10:23:04;;;;;;;1.42;0.70;;;;;;;;;;4973508;28;20076;-52
2022/05/27 10:25:36;;;;;;;2.30;0.63;;;;;;;;;;5011044;28;20025;-56
2022/05/27 10:28:02;;;;;;;1.15;0.75;;;;;;;;;;5011927;28;20038;-57
2022/05/27 10:30:33;;;;;;;5.25;1.10;;;;;;;;;;5011006;28;20100;-58
2022/05/27 10:33:14;;;;;;;2.20;1.27;;;;;;;;;;5004583;28;20534;-55
2022/05/27 10:35:39;;;;;;;2.75;0.60;;;;;;;;;;5010924;28;20022;-59
2022/05/27 10:38:15;;;;;;;1.70;0.70;;;;;;;;;;5011879;28;20030;-58
2022/05/27 10:40:41;;;;;;;1.05;0.80;;;;;;;;;;5010647;28;20101;-57
2022/05/27 10:43:11;;;;;;;2.47;1.02;;;;;;;;;;5011539;28;20105;-60
2022/05/27 10:45:43;;;;;;;2.08;0.80;;;;;;;;;;5010995;28;20061;-59
2022/05/27 10:48:21;;;;;;;2.35;0.80;;;;;;;;;;5011787;28;20418;-59
2022/05/27 10:50:57;;;;;;;1.58;1.00;;;;;;;;;;5011253;28;20545;-60
2022/05/27 10:53:42;;;;;;;1.95;0.90;;;;;;;;;;5011024;28;20084;-59
2022/05/27 10:56:20;;;;;;;4.30;1.35;;;;;;;;;;5004677;28;20042;-49
2022/05/27 11:02:07;;;;;;;5.45;0.77;;;;;;;;;;5014059;28;20122;-60
2022/05/27 11:04:45;;;;;;;1.30;0.80;;;;;;;;;;5014346;28;20033;-59
2022/05/27 11:07:14;;;;;;;1.00;0.82;;;;;;;;;;5014829;28;20034;-57
2022/05/27 11:09:40;;;;;;;1.60;1.15;;;;;;;;;;5014672;28;20048;-58
2022/05/27 11:15:10;;;;;;;1.52;0.75;;;;;;;;;;5014747;28;20034;-58
2022/05/27 11:15:42;;;;;;;2.00;1.13;;;;;;;;;;5014459;28;20080;-60
2022/05/27 11:18:21;;;;;;;0.60;0.52;;;;;;;;;;5002242;28;20493;-56
2022/05/27 11:20:55;;;;;;;3.65;1.08;;;;;;;;;;5007375;28;20029;-59
2022/05/27 11:23:39;;;;;;;2.83;1.25;;;;;;;;;;5014090;28;20140;-58
2022/05/27 11:26:11;;;;;;;3.17;0.90;;;;;;;;;;5014515;28;20034;-57
2022/05/27 11:28:46;;;;;;;3.10;0.98;;;;;;;;;;5014011;28;20112;-58
2022/05/27 11:31:38;;;;;;;2.50;0.85;;;;;;;;;;5014744;28;20432;-59
2022/05/27 11:34:23;;;;;;;1.73;0.85;;;;;;;;;;5010008;28;20121;-60
2022/05/27 11:37:11;;;;;;;2.25;0.95;;;;;;;;;;5014287;28;20088;-54
2022/05/27 11:39:37;;;;;;;1.58;0.85;;;;;;;;;;5013769;28;20026;-58
2022/05/27 11:42:13;;;;;;;0.80;0.63;;;;;;;;;;5013979;28;20048;-58
2022/05/27 11:44:54;;;;;;;1.52;0.80;;;;;;;;;;4995968;28;20021;-56
2022/05/27 11:47:46;;;;;;;2.95;0.68;;;;;;;;;;4974845;28;20046;-57
2022/05/27 11:50:21;;;;;;;1.42;0.70;;;;;;;;;;4966592;28;20129;-56
2022/05/27 11:53:06;;;;;;;6.63;1.35;;;;;;;;;;4974037;28;20027;-46
2022/05/27 11:55:35;;;;;;;1.83;1.00;;;;;;;;;;4974163;28;20130;-56
2022/05/27 11:58:12;;;;;;;1.73;0.80;;;;;;;;;;4974363;28;20106;-54
2022/05/27 12:00:44;;;;;;;4.72;1.33;;;;;;;;;;4973723;28;20041;-57
2022/05/27 12:03:30;;;;;;;2.78;0.75;;;;;;;;;;4974283;28;20038;-57
2022/05/27 12:05:58;;;;;;;1.30;0.63;;;;;;;;;;4953462;28;20113;-57
2022/05/27 12:08:36;;;;;;;6.65;1.00;;;;;;;;;;4973845;28;20031;-54
2022/05/27 12:11:07;;;;;;;3.00;1.15;;;;;;;;;;4974722;28;20093;-56
2022/05/27 12:13:45;;;;;;;3.22;0.93;;;;;;;;;;4973310;28;20037;-54
2022/05/27 12:16:17;;;;;;;2.90;0.80;;;;;;;;;;4974459;28;20042;-56
2022/05/27 12:18:45;;;;;;;2.40;1.00;;;;;;;;;;4973872;28;20035;-56
2022/05/27 12:21:13;;;;;;;1.70;0.75;;;;;;;;;;4974215;28;20034;-56
2022/05/27 12:23:43;;;;;;;2.53;0.88;;;;;;;;;;4973553;28;20195;-55
2022/05/27 12:26:09;;;;;;;1.17;0.77;;;;;;;;;;4974247;28;20035;-56
2022/05/27 12:28:39;;;;;;;0.90;0.70;;;;;;;;;;4972821;28;20527;-53
2022/05/27 12:31:06;;;;;;;1.80;0.70;;;;;;;;;;4972913;28;20395;-57
2022/05/27 12:33:34;;;;;;;4.03;0.88;;;;;;;;;;4973326;28;20034;-55
2022/05/27 12:36:03;;;;;;;1.70;0.93;;;;;;;;;;4973697;28;20018;-56
2022/05/27 12:38:37;;;;;;;2.83;0.80;;;;;;;;;;4972971;28;20114;-58
2022/05/27 12:41:07;;;;;;;1.42;0.80;;;;;;;;;;4973398;28;20111;-58
2022/05/27 12:43:40;;;;;;;1.50;0.80;;;;;;;;;;4972938;28;20027;-57
2022/05/27 12:46:24;;;;;;;1.45;0.85;;;;;;;;;;4994027;28;20050;-55
2022/05/27 12:48:50;;;;;;;3.25;0.80;;;;;;;;;;5012344;28;20053;-59
2022/05/27 12:51:16;;;;;;;1.58;0.70;;;;;;;;;;5012483;28;20018;-57
2022/05/27 12:53:45;;;;;;;3.75;0.80;;;;;;;;;;5011903;28;20406;-58
2022/05/27 13:02:16;;;;;;;1.33;0.75;;;;;;;;;;5012891;28;20033;-59
2022/05/27 13:04:45;;;;;;;2.03;0.90;;;;;;;;;;5011747;28;20034;-56
2022/05/27 13:07:11;;;;;;;6.30;0.80;;;;;;;;;;5012694;28;20030;-55
2022/05/27 13:09:42;;;;;;;3.72;0.70;;;;;;;;;;5011823;28;20034;-57
2022/05/27 13:12:10;;;;;;;2.30;0.88;;;;;;;;;;5012688;28;20414;-58
2022/05/27 13:14:44;;;;;;;0.65;0.65;;;;;;;;;;5011843;28;20025;-60
2022/05/27 13:17:28;;;;;;;1.23;0.73;;;;;;;;;;5012732;28;20034;-50
2022/05/27 13:20:08;;;;;;;2.50;0.77;;;;;;;;;;5010931;28;20391;-50
2022/05/27 13:22:34;;;;;;;5.80;0.93;;;;;;;;;;5011105;28;20387;-57
2022/05/27 13:25:18;;;;;;;1.85;0.90;;;;;;;;;;5012621;28;20030;-58
2022/05/27 13:27:46;;;;;;;1.95;0.60;;;;;;;;;;5011514;28;20093;-58
2022/05/27 13:30:13;;;;;;;0.70;0.57;;;;;;;;;;5012158;28;20049;-59
2022/05/27 13:33:00;;;;;;;0.68;0.50;;;;;;;;;;5012120;28;20347;-60
2022/05/27 13:35:28;;;;;;;0.88;0.50;;;;;;;;;;5012233;28;20022;-60
2022/05/27 13:37:57;;;;;;;0.73;0.70;;;;;;;;;;5012543;28;20061;-60
2022/05/27 13:40:30;;;;;;;0.95;0.65;;;;;;;;;;5012033;28;20022;-60
2022/05/27 13:43:01;;;;;;;2.10;0.65;;;;;;;;;;5012531;28;20354;-60
2022/05/27 13:45:45;;;;;;;2.80;0.65;;;;;;;;;;5011801;28;20056;-59
2022/05/27 13:48:20;;;;;;;2.08;0.60;;;;;;;;;;5012428;28;20038;-62
2022/05/27 13:50:47;;;;;;;2.67;0.90;;;;;;;;;;5011637;28;20034;-58
2022/05/27 13:53:17;;;;;;;0.93;0.68;;;;;;;;;;5012307;28;20053;-61
2022/05/27 13:55:43;;;;;;;1.58;0.80;;;;;;;;;;5011431;28;20030;-59
2022/05/27 13:58:10;;;;;;;1.05;0.73;;;;;;;;;;5012407;28;20025;-59
2022/05/27 14:00:42;;;;;;;2.17;0.90;;;;;;;;;;5011390;28;20048;-59
2022/05/27 14:03:09;;;;;;;0.85;0.60;;;;;;;;;;5012413;28;20022;-60
2022/05/27 14:05:36;;;;;;;1.77;0.93;;;;;;;;;;5011070;28;20351;-59
2022/05/27 14:08:03;;;;;;;1.13;0.60;;;;;;;;;;5012387;28;20030;-54
2022/05/27 14:10:30;;;;;;;1.92;0.50;;;;;;;;;;5011510;28;20026;-55
2022/05/27 14:12:57;;;;;;;1.38;0.70;;;;;;;;;;5012206;28;20030;-59
2022/05/27 14:15:28;;;;;;;1.30;0.60;;;;;;;;;;5011639;28;20025;-56
2022/05/27 14:17:55;;;;;;;4.68;0.90;;;;;;;;;;5011181;28;20084;-59
2022/05/27 14:20:27;;;;;;;1.58;0.70;;;;;;;;;;5012120;28;20025;-59
2022/05/27 14:22:55;;;;;;;1.30;0.80;;;;;;;;;;5011466;28;20018;-57
2022/05/27 14:25:24;;;;;;;1.48;0.60;;;;;;;;;;5012231;28;20022;-59
2022/05/27 14:27:53;;;;;;;6.28;0.80;;;;;;;;;;5011411;28;20034;-59
2022/05/27 14:30:23;;;;;;;4.15;0.60;;;;;;;;;;5011831;28;20366;-55
2022/05/27 14:32:49;;;;;;;5.85;0.80;;;;;;;;;;5014592;28;20026;-57
2022/05/27 14:35:19;;;;;;;0.77;0.57;;;;;;;;;;5015696;28;20026;-58
2022/05/27 14:37:54;;;;;;;4.07;0.60;;;;;;;;;;5014876;28;20025;-57
2022/05/27 14:40:22;;;;;;;1.45;0.68;;;;;;;;;;5015285;28;20028;-59
2022/05/27 14:42:48;;;;;;;3.20;0.70;;;;;;;;;;5014546;28;20033;-59
2022/05/27 14:45:29;;;;;;;3.42;0.73;;;;;;;;;;5015429;28;20076;-59
2022/05/27 14:47:55;;;;;;;1.15;0.85;;;;;;;;;;5014861;28;20057;-59
2022/05/27 14:50:23;;;;;;;2.72;0.73;;;;;;;;;;5014854;28;20061;-60
2022/05/27 14:52:56;;;;;;;1.23;0.60;;;;;;;;;;5014829;28;20075;-59
2022/05/27 14:55:27;;;;;;;4.03;0.77;;;;;;;;;;5014621;28;20336;-61
2022/05/27 14:57:55;;;;;;;2.05;0.80;;;;;;;;;;5014633;28;20497;-60
2022/05/27 15:00:25;;;;;;;7.53;0.95;;;;;;;;;;5014937;28;20022;-60
2022/05/27 15:02:52;;;;;;;1.70;0.50;;;;;;;;;;5011656;28;20013;-60
2022/05/27 15:05:26;;;;;;;2.03;0.80;;;;;;;;;;5014794;28;20021;-61
2022/05/27 15:07:54;;;;;;;0.70;0.60;;;;;;;;;;5013986;28;20033;-61
2022/05/27 15:10:20;;;;;;;1.02;0.50;;;;;;;;;;5014791;28;20028;-61
2022/05/27 15:12:46;;;;;;;0.70;0.40;;;;;;;;;;5013662;28;20463;-62
2022/05/27 15:15:26;;;;;;;0.70;0.50;;;;;;;;;;5014545;28;20363;-60
2022/05/27 15:18:00;;;;;;;1.98;0.50;;;;;;;;;;5013544;28;20076;-59
2022/05/27 15:20:26;;;;;;;1.55;0.77;;;;;;;;;;5014837;28;20100;-59
2022/05/27 15:22:54;;;;;;;1.08;0.50;;;;;;;;;;5013583;28;20461;-61
2022/05/27 15:25:23;;;;;;;2.10;0.50;;;;;;;;;;5014300;28;20076;-61
2022/05/27 15:33:33;;;;;;;2.42;0.60;;;;;;;;;;5013110;28;20388;-66
2022/05/27 15:36:00;;;;;;;0.93;0.63;;;;;;;;;;5013027;28;20022;-65
2022/05/27 15:38:28;;;;;;;1.13;0.50;;;;;;;;;;5010406;28;20159;-65
2022/05/27 15:40:54;;;;;;;1.58;0.60;;;;;;;;;;5012657;28;20132;-64